Time;durP1;ratioP1;P1;durP2;ratioP2;P2;SDS_P1;SDS_P2;PMS_P1;PMS_P2;Temp;Humidity;BMP_temperature;BMP_pressure;BME280_temperature;BME280_humidity;BME280_pressure;Samples;Min_cycle;Max_cycle;Signal;HPM_P1;HPM_P2
2022/05/07 00:07:35;;;;;;;2.95;1.83;;;7.20;99.90;;;;;;21129212;28;20032;-49
2022/05/07 00:27:58;;;;;;;3.05;2.10;;;7.20;99.90;;;;;;21128564;28;20542;-59
2022/05/07 00:38:01;;;;;;;4.00;1.67;;;7.30;99.90;;;;;;21127540;28;20061;-59
2022/05/07 00:48:04;;;;;;;6.32;2.03;;;7.20;99.90;;;;;;21194778;27;20492;-55
2022/05/07 00:58:06;;;;;;;2.63;1.73;;;7.10;99.90;;;;;;21126895;28;20032;-49
2022/05/07 01:08:11;;;;;;;2.15;1.45;;;7.10;99.90;;;;;;21110144;28;20051;-59
2022/05/07 01:18:16;;;;;;;2.67;1.83;;;7.10;99.90;;;;;;21124047;28;20090;-49
2022/05/07 01:28:18;;;;;;;1.90;1.55;;;7.10;99.90;;;;;;21142853;28;20092;-60
2022/05/07 01:38:21;;;;;;;1.95;1.40;;;7.10;99.90;;;;;;21141563;28;20386;-60
2022/05/07 01:48:25;;;;;;;2.05;1.40;;;7.00;99.90;;;;;;21074330;28;20052;-48
2022/05/07 01:58:31;;;;;;;2.45;1.65;;;6.90;99.90;;;;;;21073100;28;20044;-59
2022/05/07 02:08:39;;;;;;;2.15;1.50;;;6.90;99.90;;;;;;21072522;28;20044;-48
2022/05/07 02:18:49;;;;;;;2.63;1.93;;;6.90;99.90;;;;;;21071869;28;20032;-59
2022/05/07 02:28:52;;;;;;;2.30;1.73;;;6.90;99.90;;;;;;21053001;28;20032;-52
2022/05/07 02:38:58;;;;;;;2.78;1.73;;;6.90;99.90;;;;;;21069607;28;20178;-51
2022/05/07 02:49:01;;;;;;;2.28;1.60;;;6.90;99.90;;;;;;21213947;27;20571;-51
2022/05/07 02:59:04;;;;;;;2.65;1.70;;;7.00;99.90;;;;;;21220288;27;20035;-60
2022/05/07 03:09:07;;;;;;;2.33;1.60;;;7.10;99.90;;;;;;21162895;27;20035;-59
2022/05/07 03:19:10;;;;;;;3.47;1.98;;;7.20;99.90;;;;;;21217909;27;20035;-50
2022/05/07 03:29:14;;;;;;;3.30;2.13;;;7.20;99.90;;;;;;21200642;27;20436;-49
2022/05/07 03:39:17;;;;;;;2.75;1.88;;;7.20;99.90;;;;;;21180099;27;20101;-48
2022/05/07 03:49:20;;;;;;;2.72;1.90;;;7.30;99.90;;;;;;21063668;28;20513;-59
2022/05/07 03:59:23;;;;;;;3.75;2.05;;;7.20;99.90;;;;;;21063203;28;20043;-59
2022/05/07 04:09:29;;;;;;;2.38;1.90;;;7.20;99.90;;;;;;21062467;28;20477;-50
2022/05/07 04:19:32;;;;;;;2.28;1.92;;;7.30;99.90;;;;;;21061490;28;20378;-50
2022/05/07 04:29:36;;;;;;;2.10;1.55;;;7.30;99.90;;;;;;21061285;28;20171;-50
2022/05/07 04:39:47;;;;;;;2.78;1.40;;;7.40;99.90;;;;;;21043782;28;20032;-52
2022/05/07 04:49:50;;;;;;;2.50;1.65;;;7.50;99.90;;;;;;21130579;28;20047;-51
2022/05/07 04:59:54;;;;;;;2.30;1.80;;;7.60;99.90;;;;;;21127120;28;20647;-60
2022/05/07 05:09:57;;;;;;;1.85;1.38;;;7.80;99.90;;;;;;21126349;28;20441;-51
2022/05/07 05:20:11;;;;;;;2.50;1.80;;;7.90;99.90;;;;;;21094772;28;20089;-49
2022/05/07 05:30:18;;;;;;;2.15;1.70;;;8.00;99.90;;;;;;21109185;28;20565;-60
2022/05/07 05:40:23;;;;;;;1.85;1.52;;;8.30;99.90;;;;;;21104512;28;20097;-50
2022/05/07 05:50:30;;;;;;;2.35;1.52;;;8.60;99.90;;;;;;21041022;28;20044;-52
2022/05/07 06:00:33;;;;;;;1.92;1.30;;;8.90;99.90;;;;;;21047714;28;20032;-59
2022/05/07 06:10:35;;;;;;;1.90;1.60;;;9.20;99.90;;;;;;21054894;28;20024;-49
2022/05/07 06:20:41;;;;;;;2.25;1.80;;;9.40;99.90;;;;;;21054258;28;20044;-59
2022/05/07 06:30:45;;;;;;;2.30;1.75;;;9.60;99.90;;;;;;21054125;28;20465;-59
2022/05/07 06:40:50;;;;;;;4.60;1.73;;;9.80;99.90;;;;;;21052748;28;20036;-59
2022/05/07 06:50:55;;;;;;;2.38;1.67;;;9.90;99.90;;;;;;21052339;28;20032;-60
2022/05/07 07:01:02;;;;;;;2.00;1.60;;;9.90;99.90;;;;;;21051614;28;20036;-49
2022/05/07 07:11:04;;;;;;;1.83;1.55;;;10.30;99.90;;;;;;21050037;28;20066;-53
2022/05/07 07:21:07;;;;;;;2.80;1.85;;;10.60;99.90;;;;;;21049917;28;20040;-53
2022/05/07 07:31:10;;;;;;;2.83;2.03;;;10.60;99.90;;;;;;21048828;28;20039;-56
2022/05/07 07:41:13;;;;;;;3.03;2.22;;;10.60;99.90;;;;;;21048508;28;20048;-53
2022/05/07 07:51:15;;;;;;;2.90;2.25;;;10.50;99.90;;;;;;21047661;28;20040;-51
2022/05/07 08:01:17;;;;;;;2.60;2.05;;;10.50;99.90;;;;;;21047071;28;20097;-52
2022/05/07 08:21:41;;;;;;;2.95;1.70;;;10.30;99.90;;;;;;21043920;28;20105;-49
2022/05/07 08:31:44;;;;;;;3.30;2.45;;;10.20;99.90;;;;;;21043796;28;20113;-59
2022/05/07 08:41:47;;;;;;;3.85;2.30;;;10.30;99.90;;;;;;21060181;28;20035;-55
2022/05/07 08:51:50;;;;;;;3.60;2.28;;;10.50;99.90;;;;;;21127441;28;20035;-57
2022/05/07 09:01:52;;;;;;;2.65;1.90;;;11.00;99.90;;;;;;21126748;28;20560;-50
2022/05/07 09:11:54;;;;;;;3.25;2.47;;;11.10;99.90;;;;;;21127327;28;20036;-51
2022/05/07 09:22:08;;;;;;;4.32;2.70;;;11.20;99.90;;;;;;21126652;28;20081;-54
2022/05/07 09:32:16;;;;;;;3.08;2.67;;;11.40;99.90;;;;;;21129856;28;20164;-51
2022/05/07 09:42:20;;;;;;;5.22;3.53;;;11.50;99.90;;;;;;21143475;28;20048;-59
2022/05/07 09:52:23;;;;;;;3.70;2.58;;;11.90;99.90;;;;;;21141877;28;20062;-51
2022/05/07 10:02:49;;;;;;;4.95;3.28;;;12.50;99.90;;;;;;21221043;27;20100;-51
2022/05/07 10:12:55;;;;;;;4.72;3.53;;;13.00;99.90;;;;;;21224556;27;20096;-53
2022/05/07 10:22:57;;;;;;;4.47;3.13;;;13.40;99.90;;;;;;21223906;27;20052;-53
2022/05/07 10:33:03;;;;;;;4.93;3.17;;;13.50;99.90;;;;;;21165190;27;20066;-53
2022/05/07 10:43:06;;;;;;;6.55;3.95;;;13.00;99.90;;;;;;21136854;28;20111;-53
2022/05/07 10:53:08;;;;;;;5.15;3.90;;;12.50;99.90;;;;;;21136604;28;20047;-50
2022/05/07 11:03:12;;;;;;;10.57;4.90;;;11.80;99.90;;;;;;21171941;27;20035;-55
2022/05/07 11:13:19;;;;;;;5.40;3.92;;;11.80;99.90;;;;;;21134882;28;20027;-53
2022/05/07 11:23:22;;;;;;;4.55;3.53;;;13.40;99.90;;;;;;21134179;28;20035;-52
2022/05/07 11:33:26;;;;;;;4.97;3.90;;;12.90;99.90;;;;;;21170412;27;20031;-52
2022/05/07 11:53:50;;;;;;;5.15;4.07;;;12.90;99.90;;;;;;21132067;28;20036;-50
2022/05/07 12:03:53;;;;;;;3.30;2.85;;;13.50;99.90;;;;;;21129810;28;20036;-53
2022/05/07 12:13:55;;;;;;;7.93;5.05;;;13.70;99.90;;;;;;21130248;28;20031;-60
2022/05/07 12:34:21;;;;;;;5.82;4.20;;;13.30;99.90;;;;;;21128574;28;20399;-52
2022/05/07 12:44:24;;;;;;;1.60;1.30;;;13.20;99.90;;;;;;21128165;28;20450;-60
2022/05/07 12:54:26;;;;;;;2.30;1.60;;;12.70;99.90;;;;;;21110984;28;20044;-52
2022/05/07 13:04:29;;;;;;;2.03;1.27;;;11.90;99.90;;;;;;21127252;28;20100;-52
2022/05/07 13:14:35;;;;;;;1.92;1.30;;;11.50;99.90;;;;;;21142135;28;20039;-59
2022/05/07 13:24:38;;;;;;;2.55;0.80;;;12.10;99.90;;;;;;21143851;28;20039;-59
2022/05/07 13:34:42;;;;;;;0.82;0.40;;;11.80;99.90;;;;;;21160992;27;20031;-53
2022/05/07 13:44:44;;;;;;;0.50;0.50;;;11.60;99.90;;;;;;21142212;28;20112;-49
2022/05/07 13:54:47;;;;;;;0.98;0.65;;;11.40;99.90;;;;;;21141241;28;20039;-59
2022/05/07 14:04:50;;;;;;;0.50;0.40;;;11.30;99.90;;;;;;21140433;28;20040;-60
2022/05/07 14:14:53;;;;;;;7.15;5.55;;;12.30;99.90;;;;;;21139554;28;20057;-54
2022/05/07 14:24:55;;;;;;;3.88;3.08;;;13.60;99.90;;;;;;21138248;28;20032;-50
2022/05/07 14:34:58;;;;;;;5.07;3.97;;;13.60;99.90;;;;;;21137633;28;20073;-54
2022/05/07 14:45:01;;;;;;;6.47;3.83;;;14.20;99.90;;;;;;21137341;28;20047;-60
2022/05/07 14:55:04;;;;;;;5.78;4.63;;;13.70;99.90;;;;;;21218830;27;20322;-59
2022/05/07 15:05:09;;;;;;;1.55;0.73;;;13.10;99.90;;;;;;21164835;27;20043;-52
2022/05/07 15:15:11;;;;;;;1.08;0.70;;;12.60;99.90;;;;;;21135113;28;20085;-51
2022/05/07 15:25:18;;;;;;;1.13;0.77;;;12.20;99.90;;;;;;21134841;28;20388;-59
2022/05/07 15:45:43;;;;;;;1.02;0.70;;;11.80;99.90;;;;;;21132646;28;20116;-50
2022/05/07 15:55:46;;;;;;;1.40;0.85;;;11.60;99.90;;;;;;21131922;28;20043;-49
2022/05/07 16:05:48;;;;;;;0.82;0.73;;;11.50;99.90;;;;;;21206156;27;20031;-48
2022/05/07 16:15:57;;;;;;;0.47;0.30;;;11.60;99.90;;;;;;21198043;27;20031;-49
2022/05/07 16:25:59;;;;;;;0.77;0.50;;;11.60;99.90;;;;;;21214545;27;20043;-59
2022/05/07 16:36:04;;;;;;;0.20;0.20;;;11.80;99.90;;;;;;21129732;28;20048;-59
2022/05/07 16:46:07;;;;;;;0.70;0.50;;;12.00;99.90;;;;;;21127459;28;20051;-51
2022/05/07 16:56:10;;;;;;;0.40;0.30;;;11.60;99.90;;;;;;21111447;28;20378;-53
2022/05/07 17:06:13;;;;;;;1.23;0.73;;;11.40;99.90;;;;;;21127036;28;20093;-50
2022/05/07 17:16:16;;;;;;;8.23;5.65;;;11.20;99.90;;;;;;21181759;28;20091;-50
2022/05/07 17:26:19;;;;;;;9.00;6.18;;;11.00;99.90;;;;;;21164724;28;20158;-49
2022/05/07 17:36:21;;;;;;;7.90;5.20;;;10.90;99.90;;;;;;21199793;28;20027;-52
2022/05/07 17:46:28;;;;;;;3.83;2.80;;;10.60;99.90;;;;;;21126097;28;20133;-53
2022/05/07 17:56:32;;;;;;;6.10;3.95;;;10.30;99.90;;;;;;21131436;28;20036;-51
2022/05/07 18:06:35;;;;;;;1.15;0.50;;;10.10;99.90;;;;;;21157082;27;20035;-48
2022/05/07 18:16:38;;;;;;;0.70;0.57;;;9.80;99.90;;;;;;21223838;27;20548;-59
2022/05/07 18:26:42;;;;;;;1.95;0.77;;;9.60;99.90;;;;;;21219056;27;20020;-58
2022/05/07 18:47:09;;;;;;;0.47;0.40;;;9.40;99.90;;;;;;21136916;28;20077;-49
2022/05/07 19:07:34;;;;;;;0.63;0.40;;;9.30;99.90;;;;;;21136153;28;20484;-50
2022/05/07 19:17:37;;;;;;;0.40;0.20;;;9.10;99.90;;;;;;21134519;28;20389;-50
2022/05/07 19:27:39;;;;;;;0.50;0.10;;;9.10;99.90;;;;;;21133830;28;20096;-49
2022/05/07 19:37:42;;;;;;;0.13;0.13;;;9.10;99.90;;;;;;21133295;28;20394;-52
2022/05/07 19:47:47;;;;;;;0.60;0.30;;;9.10;99.90;;;;;;21132512;28;20100;-59
2022/05/07 19:57:50;;;;;;;0.65;0.30;;;9.20;99.90;;;;;;21131365;28;20051;-59
2022/05/07 20:07:54;;;;;;;0.63;0.22;;;9.20;99.90;;;;;;21130481;28;20031;-51
2022/05/07 20:17:57;;;;;;;0.57;0.30;;;9.10;99.90;;;;;;21129200;28;20061;-53
2022/05/07 20:28:00;;;;;;;1.17;0.28;;;9.10;99.90;;;;;;21129944;28;20100;-51
2022/05/07 20:38:03;;;;;;;0.82;0.28;;;9.00;99.90;;;;;;21128690;28;20055;-47
2022/05/07 20:48:06;;;;;;;1.65;0.30;;;8.70;99.90;;;;;;21044108;28;20040;-46
2022/05/07 20:58:11;;;;;;;0.45;0.30;;;8.40;99.90;;;;;;21060364;28;20374;-48
2022/05/07 21:08:15;;;;;;;2.67;0.32;;;8.30;99.90;;;;;;21061266;28;20040;-46
2022/05/07 21:18:19;;;;;;;0.60;0.30;;;8.10;99.90;;;;;;21059804;28;20039;-47
2022/05/07 21:28:21;;;;;;;1.90;0.30;;;8.00;99.90;;;;;;21061772;28;20062;-53
2022/05/07 21:38:24;;;;;;;2.33;0.32;;;8.00;99.90;;;;;;21074760;28;20381;-45
2022/05/07 21:48:27;;;;;;;1.00;0.40;;;7.90;99.90;;;;;;21074532;28;20051;-49
2022/05/07 21:58:37;;;;;;;1.40;0.45;;;7.80;99.90;;;;;;21073911;28;20048;-57
2022/05/07 22:08:39;;;;;;;0.88;0.45;;;7.80;99.90;;;;;;21073322;28;20032;-47
2022/05/07 22:18:46;;;;;;;0.68;0.40;;;7.80;99.90;;;;;;21072476;28;20040;-50
2022/05/07 22:28:49;;;;;;;0.60;0.30;;;7.80;99.90;;;;;;21071726;28;20032;-46
2022/05/07 22:38:51;;;;;;;0.75;0.43;;;7.80;99.90;;;;;;21069961;28;20036;-56
2022/05/07 22:48:54;;;;;;;0.47;0.30;;;7.70;99.90;;;;;;21137332;28;20496;-50
2022/05/07 22:58:58;;;;;;;0.60;0.40;;;7.80;99.90;;;;;;21137131;28;20040;-47
2022/05/07 23:09:00;;;;;;;0.57;0.40;;;7.80;99.90;;;;;;21153106;28;20400;-46
2022/05/07 23:19:02;;;;;;;1.02;0.43;;;7.80;99.90;;;;;;21135166;28;20035;-56
2022/05/07 23:29:05;;;;;;;0.40;0.30;;;7.80;99.90;;;;;;21141205;28;20035;-51
2022/05/07 23:39:08;;;;;;;0.55;0.35;;;7.80;99.90;;;;;;21133535;28;20035;-56
2022/05/07 23:49:11;;;;;;;1.40;0.50;;;7.90;99.90;;;;;;21064933;28;20070;-58
2022/05/07 23:59:14;;;;;;;0.88;0.60;;;7.90;99.90;;;;;;21064116;28;20505;-55
